Lovejoy, Illinois
Current Conditions -  °F | °C
As of 1:11 AM on Saturday 20 Dec 2014 (Local Time) from KCPS Reporting Station
Overcast Overcast  
Wind Chill: 35°   Ceiling: 3100
Heat Index: 35°   Visibility: 8mi
Dew Point: 29°   Wind: 0mph
Humidity: 78%   Direction: NA
Pressure: 30.27"   Gusts: NA
Location:  38.63°N, 90.15°W
Report Text: KCPS 200711Z AUTO 00000KT 8SM BKN031 OVC055 02/M02 A3027 RMK AO2 T00171017 TSNO
Loading
Personal Weather Stations






























Interactive Weather Map New forecast layout! Learn more

10-Day Weather Forecast

Advertisements
Track Severe Weather on mobile